Time;durP1;ratioP1;P1;durP2;ratioP2;P2;SDS_P1;SDS_P2;PMS_P1;PMS_P2;Temp;Humidity;BMP_temperature;BMP_pressure;BME280_temperature;BME280_humidity;BME280_pressure;Samples;Min_cycle;Max_cycle;Signal;HPM_P1;HPM_P2
2022/04/10 00:00:40;;;;;;;1.90;0.93;;;16.30;51.80;;;;;;5134966;27;20598;-73
2022/04/10 00:03:05;;;;;;;1.85;1.20;;;16.30;51.80;;;;;;5135839;27;20271;-72
2022/04/10 00:05:31;;;;;;;1.08;0.93;;;16.30;51.80;;;;;;5135021;27;20172;-72
2022/04/10 00:07:56;;;;;;;1.25;1.00;;;16.30;51.80;;;;;;5135838;27;20211;-72
2022/04/10 00:10:22;;;;;;;1.52;0.95;;;16.20;51.80;;;;;;5135281;27;20517;-72
2022/04/10 00:12:47;;;;;;;1.90;1.20;;;16.20;52.40;;;;;;5134930;27;20936;-74
2022/04/10 00:15:13;;;;;;;2.45;1.30;;;16.20;51.80;;;;;;5134928;27;20173;-73
2022/04/10 00:17:39;;;;;;;4.65;1.00;;;16.20;51.80;;;;;;5135383;27;20545;-74
2022/04/10 00:20:05;;;;;;;1.92;0.95;;;16.20;51.80;;;;;;5134867;27;20168;-73
2022/04/10 00:22:30;;;;;;;2.65;1.30;;;16.40;51.90;;;;;;5135311;27;20237;-73
2022/04/10 00:24:56;;;;;;;1.88;1.15;;;16.20;51.80;;;;;;5135316;27;20168;-73
2022/04/10 00:27:21;;;;;;;2.35;1.13;;;16.20;51.80;;;;;;5134149;27;20208;-73
2022/04/10 00:29:47;;;;;;;2.72;1.00;;;16.20;51.80;;;;;;5135253;27;20519;-73
2022/04/10 00:32:15;;;;;;;1.10;0.98;;;16.20;51.80;;;;;;5135090;27;20699;-73
2022/04/10 00:34:41;;;;;;;3.63;1.77;;;16.20;51.80;;;;;;5134509;27;20168;-73
2022/04/10 00:37:07;;;;;;;1.98;1.35;;;16.10;51.80;;;;;;5134821;27;20175;-73
2022/04/10 00:39:32;;;;;;;1.02;0.93;;;16.10;51.90;;;;;;5135035;27;20167;-73
2022/04/10 00:41:58;;;;;;;1.95;1.08;;;16.10;51.80;;;;;;5134197;27;20172;-73
2022/04/10 00:44:23;;;;;;;1.85;1.17;;;16.10;51.80;;;;;;5134875;27;20221;-73
2022/04/10 00:46:50;;;;;;;1.83;1.10;;;16.10;51.80;;;;;;5135028;27;20168;-73
2022/04/10 00:49:15;;;;;;;1.10;1.00;;;16.10;51.80;;;;;;5133846;27;20212;-73
2022/04/10 00:51:41;;;;;;;2.83;1.50;;;16.10;51.80;;;;;;5134757;27;20213;-74
2022/04/10 00:54:09;;;;;;;2.58;1.20;;;16.00;51.80;;;;;;5116035;27;20196;-73
2022/04/10 00:56:34;;;;;;;2.47;1.20;;;16.00;52.50;;;;;;5133878;27;20172;-73
2022/04/10 00:59:01;;;;;;;2.03;1.25;;;16.00;51.80;;;;;;5134672;27;20592;-74
2022/04/10 01:01:27;;;;;;;2.08;1.10;;;16.00;51.80;;;;;;5115785;27;20565;-73
2022/04/10 01:03:53;;;;;;;2.22;1.08;;;16.00;51.80;;;;;;5134080;27;20168;-72
2022/04/10 01:06:19;;;;;;;1.83;1.40;;;16.00;51.80;;;;;;5134393;27;20180;-73
2022/04/10 01:08:44;;;;;;;1.33;1.02;;;16.00;51.80;;;;;;5115305;27;20682;-73
2022/04/10 01:11:10;;;;;;;2.15;1.13;;;16.00;51.90;;;;;;5098682;27;20324;-74
2022/04/10 01:13:35;;;;;;;1.95;1.25;;;16.00;51.90;;;;;;5115996;27;20225;-73
2022/04/10 01:16:00;;;;;;;2.15;1.05;;;15.90;51.80;;;;;;5115185;28;20533;-74
2022/04/10 01:18:26;;;;;;;1.30;0.90;;;15.90;51.90;;;;;;5115756;27;20184;-74
2022/04/10 01:20:52;;;;;;;1.77;1.20;;;15.90;51.90;;;;;;5134320;27;20168;-73
2022/04/10 01:23:17;;;;;;;4.38;1.30;;;15.90;51.90;;;;;;5098105;27;20245;-73
2022/04/10 01:25:44;;;;;;;2.00;1.00;;;15.90;51.90;;;;;;5133513;27;20168;-73
2022/04/10 01:28:12;;;;;;;3.05;1.30;;;15.90;51.90;;;;;;5133856;27;20212;-74
2022/04/10 01:30:43;;;;;;;2.13;1.33;;;15.90;51.90;;;;;;5133331;27;20175;-73
2022/04/10 01:33:08;;;;;;;2.53;1.27;;;15.90;51.90;;;;;;5133884;27;20172;-73
2022/04/10 01:35:37;;;;;;;2.10;1.10;;;15.90;52.00;;;;;;5134070;27;20176;-72
2022/04/10 01:38:02;;;;;;;2.10;1.30;;;15.80;51.80;;;;;;5098788;27;20177;-73
2022/04/10 01:40:27;;;;;;;2.58;1.08;;;15.80;51.80;;;;;;5115210;27;20516;-73
2022/04/10 01:42:53;;;;;;;2.13;1.00;;;15.90;51.90;;;;;;5134000;27;20180;-74
2022/04/10 01:45:18;;;;;;;2.70;1.13;;;15.80;51.80;;;;;;5133028;27;20217;-73
2022/04/10 01:47:44;;;;;;;2.28;1.30;;;15.80;51.90;;;;;;5133901;27;20196;-73
2022/04/10 01:50:11;;;;;;;4.13;1.20;;;15.80;51.90;;;;;;5133473;27;20172;-73
2022/04/10 01:52:36;;;;;;;2.40;1.15;;;15.80;51.90;;;;;;5133006;27;20267;-73
2022/04/10 01:55:02;;;;;;;1.75;1.33;;;15.80;51.90;;;;;;5133732;27;20263;-73
2022/04/10 01:57:27;;;;;;;1.73;1.00;;;15.80;51.90;;;;;;5133544;27;20181;-73
2022/04/10 01:59:53;;;;;;;1.10;1.00;;;15.80;51.90;;;;;;5133017;27;20238;-73
2022/04/10 02:02:18;;;;;;;3.47;1.23;;;15.80;51.90;;;;;;5133451;27;20173;-73
2022/04/10 02:04:44;;;;;;;2.75;1.40;;;15.80;52.00;;;;;;5133656;27;20183;-73
2022/04/10 02:07:09;;;;;;;2.50;1.73;;;15.80;52.00;;;;;;5132326;28;20561;-73
2022/04/10 02:09:35;;;;;;;1.65;1.30;;;15.70;51.90;;;;;;5133852;28;20179;-73
2022/04/10 02:12:00;;;;;;;1.48;1.02;;;15.70;51.90;;;;;;5133495;28;20172;-73
2022/04/10 02:14:26;;;;;;;1.33;1.08;;;15.70;51.90;;;;;;5114684;28;20176;-73
2022/04/10 02:16:51;;;;;;;1.35;1.13;;;15.70;51.90;;;;;;5133483;28;20538;-73
2022/04/10 02:19:17;;;;;;;1.73;1.35;;;15.70;51.90;;;;;;5132537;28;20659;-72
2022/04/10 02:21:42;;;;;;;0.85;0.85;;;15.70;52.00;;;;;;5133398;28;20165;-73
2022/04/10 02:24:08;;;;;;;2.28;1.08;;;15.60;51.90;;;;;;5133057;28;20207;-75
2022/04/10 02:26:34;;;;;;;1.55;1.00;;;15.60;51.90;;;;;;5132668;28;20180;-73
2022/04/10 02:29:00;;;;;;;2.03;1.30;;;15.60;51.90;;;;;;5133421;28;20253;-74
2022/04/10 02:31:25;;;;;;;1.50;1.25;;;15.70;52.60;;;;;;5132968;28;20646;-75
2022/04/10 02:33:51;;;;;;;2.90;1.38;;;15.60;51.90;;;;;;5132578;28;20183;-75
2022/04/10 02:36:19;;;;;;;3.05;1.38;;;15.60;51.90;;;;;;5133192;27;20631;-74
2022/04/10 02:38:44;;;;;;;1.67;1.27;;;15.60;51.90;;;;;;5137564;27;20206;-75
2022/04/10 02:41:10;;;;;;;3.22;1.20;;;15.60;51.90;;;;;;5136489;27;20176;-75
2022/04/10 02:43:37;;;;;;;1.95;1.25;;;15.60;51.90;;;;;;5137372;27;20203;-74
2022/04/10 02:46:02;;;;;;;1.63;1.10;;;15.60;51.90;;;;;;5119003;27;20183;-74
2022/04/10 02:48:28;;;;;;;2.13;1.15;;;15.60;51.90;;;;;;5136103;27;20204;-75
2022/04/10 02:50:53;;;;;;;2.45;1.33;;;15.60;51.90;;;;;;5137107;27;20526;-74
2022/04/10 02:53:19;;;;;;;2.10;1.08;;;15.60;52.00;;;;;;5136961;27;20196;-74
2022/04/10 02:55:44;;;;;;;2.00;1.15;;;15.60;51.90;;;;;;5136322;27;20529;-75
2022/04/10 02:58:10;;;;;;;1.23;1.05;;;15.50;51.90;;;;;;5136799;27;20217;-74
2022/04/10 03:00:36;;;;;;;1.90;1.20;;;15.50;51.90;;;;;;5137019;27;20229;-74
2022/04/10 03:03:04;;;;;;;1.88;1.20;;;15.50;51.90;;;;;;5136243;27;20211;-74
2022/04/10 03:05:30;;;;;;;1.30;1.15;;;15.50;51.90;;;;;;5136541;27;20217;-73
2022/04/10 03:07:55;;;;;;;1.70;1.20;;;15.50;51.90;;;;;;5137017;27;20208;-74
2022/04/10 03:10:21;;;;;;;1.20;1.10;;;15.50;52.00;;;;;;5135889;27;20172;-75
2022/04/10 03:12:46;;;;;;;1.95;1.45;;;15.40;51.90;;;;;;5136855;27;20662;-74
2022/04/10 03:15:12;;;;;;;1.92;1.17;;;15.50;51.90;;;;;;5136490;27;20172;-75
2022/04/10 03:17:37;;;;;;;2.58;1.20;;;15.50;51.90;;;;;;5117484;27;20651;-74
2022/04/10 03:20:03;;;;;;;1.40;1.25;;;15.40;51.90;;;;;;5136557;27;20536;-74
2022/04/10 03:22:29;;;;;;;1.17;1.00;;;15.40;51.80;;;;;;5135742;27;20184;-74
2022/04/10 03:24:54;;;;;;;2.17;1.30;;;15.40;51.80;;;;;;5136722;27;20175;-75
2022/04/10 03:27:20;;;;;;;3.25;1.33;;;15.40;51.80;;;;;;5136216;27;20569;-75
2022/04/10 03:29:45;;;;;;;2.63;1.50;;;15.40;51.80;;;;;;5135857;27;20180;-74
2022/04/10 03:32:11;;;;;;;2.13;1.20;;;15.40;51.80;;;;;;5136115;27;20179;-74
2022/04/10 03:34:36;;;;;;;1.00;0.95;;;15.40;51.90;;;;;;5136229;27;20176;-74
2022/04/10 03:37:02;;;;;;;2.08;1.30;;;15.40;51.80;;;;;;5135894;27;20256;-74
2022/04/10 03:39:27;;;;;;;2.60;1.20;;;15.40;51.80;;;;;;5136119;27;20875;-74
2022/04/10 03:41:53;;;;;;;1.50;1.10;;;15.40;51.90;;;;;;5136340;27;20252;-74
2022/04/10 03:44:18;;;;;;;2.05;1.52;;;15.40;51.90;;;;;;5135169;27;20164;-75
2022/04/10 03:46:44;;;;;;;1.80;1.10;;;15.30;51.80;;;;;;5136023;27;20181;-75
2022/04/10 03:49:09;;;;;;;2.00;1.45;;;15.30;51.80;;;;;;5135025;27;20735;-74
2022/04/10 03:51:35;;;;;;;2.35;1.48;;;15.30;51.90;;;;;;5135535;27;20176;-74
2022/04/10 03:54:00;;;;;;;1.77;1.30;;;15.30;51.80;;;;;;5136257;27;20179;-75
2022/04/10 03:56:26;;;;;;;1.35;1.05;;;15.30;51.90;;;;;;5135630;27;20675;-75
2022/04/10 03:58:51;;;;;;;1.20;1.10;;;15.30;51.80;;;;;;5135049;27;20168;-74
2022/04/10 04:01:17;;;;;;;1.65;0.93;;;15.30;51.80;;;;;;5135434;27;20216;-74
2022/04/10 04:03:42;;;;;;;2.58;1.13;;;15.30;51.80;;;;;;5135743;27;20176;-73
2022/04/10 04:06:08;;;;;;;1.13;1.05;;;15.30;51.90;;;;;;5134728;27;20195;-74
2022/04/10 04:08:33;;;;;;;1.10;0.93;;;15.20;51.80;;;;;;5135709;27;20666;-73
2022/04/10 04:10:59;;;;;;;1.33;1.00;;;15.30;51.90;;;;;;5135774;27;20179;-75
2022/04/10 04:13:25;;;;;;;1.73;1.10;;;15.20;51.80;;;;;;5134697;27;20518;-75
2022/04/10 04:15:51;;;;;;;1.48;1.15;;;15.30;51.90;;;;;;5134526;27;20198;-75
2022/04/10 04:18:16;;;;;;;1.95;1.20;;;15.20;51.90;;;;;;5135171;27;20175;-75
2022/04/10 04:20:41;;;;;;;2.63;1.48;;;15.20;51.90;;;;;;5134975;27;20663;-74
2022/04/10 04:23:07;;;;;;;1.90;1.10;;;15.20;51.90;;;;;;5135356;27;20184;-75
2022/04/10 04:25:33;;;;;;;1.35;1.20;;;15.20;51.90;;;;;;5135478;27;20176;-74
2022/04/10 04:27:58;;;;;;;1.08;0.93;;;15.20;51.90;;;;;;5134564;27;20215;-75
2022/04/10 04:30:24;;;;;;;2.22;1.40;;;15.20;51.90;;;;;;5135154;27;20216;-74
2022/04/10 04:32:50;;;;;;;2.72;1.17;;;15.20;51.90;;;;;;5134454;27;20173;-74
2022/04/10 04:35:16;;;;;;;2.83;1.17;;;15.10;51.90;;;;;;5135059;27;20203;-74
2022/04/10 04:37:41;;;;;;;1.90;1.20;;;15.20;51.90;;;;;;5135244;27;20200;-74
2022/04/10 04:40:08;;;;;;;1.35;1.00;;;15.10;51.90;;;;;;5134073;27;20172;-74
2022/04/10 04:42:34;;;;;;;1.33;1.13;;;15.10;51.90;;;;;;5135368;27;20251;-74
2022/04/10 04:44:59;;;;;;;1.77;1.20;;;15.10;51.90;;;;;;5134901;27;20523;-75
2022/04/10 04:47:28;;;;;;;2.10;1.33;;;15.10;51.90;;;;;;5133799;27;20212;-74
2022/04/10 04:49:54;;;;;;;1.77;1.30;;;15.10;51.90;;;;;;5134774;27;20634;-74
2022/04/10 04:52:20;;;;;;;1.73;1.10;;;15.10;51.90;;;;;;5134482;27;20657;-74
2022/04/10 04:54:45;;;;;;;2.10;1.13;;;15.10;51.90;;;;;;5134182;27;20172;-75
2022/04/10 04:57:11;;;;;;;2.67;1.38;;;15.10;51.90;;;;;;5134454;27;20184;-74
2022/04/10 04:59:36;;;;;;;1.88;1.20;;;15.10;52.00;;;;;;5134172;27;20177;-73
2022/04/10 05:02:03;;;;;;;2.15;1.42;;;15.10;52.00;;;;;;5133095;27;20698;-73
2022/04/10 05:04:28;;;;;;;3.30;1.08;;;15.10;51.90;;;;;;5134625;27;20194;-73
2022/04/10 05:06:54;;;;;;;2.25;1.00;;;15.20;51.90;;;;;;5134806;27;20175;-74
2022/04/10 05:09:19;;;;;;;1.40;1.08;;;15.30;52.00;;;;;;5132845;27;20223;-74
2022/04/10 05:11:45;;;;;;;1.52;1.25;;;15.40;51.80;;;;;;5134424;27;20570;-74
2022/04/10 05:14:10;;;;;;;2.17;1.10;;;15.60;51.60;;;;;;5134084;27;20202;-74
2022/04/10 05:16:36;;;;;;;1.42;1.00;;;15.80;51.30;;;;;;5133535;27;20169;-74
2022/04/10 05:19:01;;;;;;;1.52;0.95;;;16.00;51.10;;;;;;5134309;27;20183;-75
2022/04/10 05:21:27;;;;;;;1.10;1.00;;;16.30;50.70;;;;;;5134125;27;20635;-74
2022/04/10 05:23:52;;;;;;;1.20;0.90;;;16.60;50.20;;;;;;5133720;27;20221;-75
2022/04/10 05:26:18;;;;;;;1.65;0.93;;;16.80;50.50;;;;;;5133824;27;20168;-75
2022/04/10 05:28:43;;;;;;;1.60;0.90;;;17.00;49.50;;;;;;5133971;27;20573;-74
2022/04/10 05:31:09;;;;;;;0.80;0.73;;;17.20;49.10;;;;;;5133130;27;20173;-74
2022/04/10 05:33:35;;;;;;;1.40;1.10;;;17.30;48.70;;;;;;5133903;27;20176;-73
2022/04/10 05:36:00;;;;;;;1.73;0.88;;;17.40;48.60;;;;;;5133667;27;20176;-73
2022/04/10 05:38:26;;;;;;;1.23;0.90;;;17.40;48.60;;;;;;5133866;27;20980;-74
2022/04/10 05:40:54;;;;;;;1.70;0.95;;;17.30;48.70;;;;;;5134185;27;20203;-74
2022/04/10 05:43:23;;;;;;;1.20;0.90;;;17.30;48.90;;;;;;5132929;27;20164;-74
2022/04/10 05:45:51;;;;;;;1.08;0.90;;;17.30;49.00;;;;;;5133790;27;20164;-75
2022/04/10 05:48:17;;;;;;;2.45;0.80;;;17.20;49.10;;;;;;5133627;27;20208;-74
2022/04/10 05:50:43;;;;;;;0.85;0.80;;;17.20;49.10;;;;;;5133104;27;20217;-74
2022/04/10 05:53:08;;;;;;;1.25;0.90;;;17.20;49.10;;;;;;5133661;27;20229;-74
2022/04/10 05:55:34;;;;;;;1.35;0.70;;;17.20;49.20;;;;;;5133653;27;20537;-75
2022/04/10 05:58:01;;;;;;;1.15;0.90;;;17.10;49.30;;;;;;5133140;27;20690;-74
2022/04/10 06:00:29;;;;;;;1.10;0.80;;;17.10;49.40;;;;;;5133214;27;20224;-74
2022/04/10 06:02:54;;;;;;;1.42;0.70;;;17.00;49.40;;;;;;5133858;27;20176;-73
2022/04/10 06:05:20;;;;;;;1.58;0.73;;;17.10;49.40;;;;;;5132599;27;20368;-74
2022/04/10 06:07:45;;;;;;;0.98;0.88;;;17.20;49.30;;;;;;5133624;27;20200;-73
2022/04/10 06:10:11;;;;;;;1.45;0.90;;;17.30;49.20;;;;;;5133316;28;20530;-74
2022/04/10 06:12:36;;;;;;;0.88;0.80;;;17.40;49.00;;;;;;5137698;27;20268;-74
2022/04/10 06:15:02;;;;;;;1.35;0.90;;;17.40;49.00;;;;;;5140212;27;20626;-75
2022/04/10 06:17:28;;;;;;;2.67;0.88;;;17.40;49.10;;;;;;5140283;27;20192;-75
2022/04/10 06:19:54;;;;;;;1.35;0.70;;;17.50;49.00;;;;;;5139929;27;20195;-74
2022/04/10 06:22:19;;;;;;;0.95;0.80;;;17.50;49.00;;;;;;5140000;27;20171;-75
2022/04/10 06:24:45;;;;;;;1.08;0.80;;;17.60;48.90;;;;;;5140431;27;20191;-75
2022/04/10 06:27:10;;;;;;;1.77;0.80;;;17.70;48.80;;;;;;5139346;27;20188;-74
2022/04/10 06:29:35;;;;;;;1.27;0.95;;;17.70;48.80;;;;;;5140616;27;20168;-74
2022/04/10 06:32:01;;;;;;;2.03;1.00;;;17.80;48.60;;;;;;5140203;27;20545;-74
2022/04/10 06:34:27;;;;;;;1.13;0.80;;;18.00;48.40;;;;;;5139315;27;20229;-73
2022/04/10 06:36:52;;;;;;;1.58;0.95;;;18.10;48.10;;;;;;5140400;27;20653;-74
2022/04/10 06:39:18;;;;;;;1.55;0.98;;;18.30;48.00;;;;;;5139388;27;20176;-74
2022/04/10 06:41:44;;;;;;;1.05;0.77;;;18.40;47.80;;;;;;5140028;27;20521;-74
2022/04/10 06:44:09;;;;;;;0.70;0.70;;;18.50;47.60;;;;;;5139739;27;20176;-74
2022/04/10 06:46:35;;;;;;;1.08;0.82;;;18.50;47.50;;;;;;5139505;27;20519;-74
2022/04/10 06:49:01;;;;;;;1.23;0.80;;;18.40;47.60;;;;;;5140272;27;20664;-74
2022/04/10 06:51:26;;;;;;;1.08;0.68;;;18.30;47.70;;;;;;5139953;27;20635;-74
2022/04/10 06:53:52;;;;;;;1.60;0.93;;;18.40;47.90;;;;;;5139353;27;20216;-74
2022/04/10 06:56:17;;;;;;;1.48;1.00;;;18.30;48.00;;;;;;5139630;27;20551;-74
2022/04/10 06:58:43;;;;;;;0.98;0.90;;;18.40;48.00;;;;;;5139926;27;20241;-74
2022/04/10 07:01:08;;;;;;;1.52;0.85;;;18.40;47.90;;;;;;5138659;27;20215;-74
2022/04/10 07:03:34;;;;;;;1.00;0.90;;;18.50;48.00;;;;;;5139871;27;20176;-73
2022/04/10 07:05:59;;;;;;;1.33;1.08;;;18.50;47.80;;;;;;5139832;27;20664;-73
2022/04/10 07:08:26;;;;;;;0.93;0.80;;;18.60;47.70;;;;;;5138652;27;20227;-72
2022/04/10 07:10:52;;;;;;;1.73;0.90;;;18.60;47.60;;;;;;5139827;27;20172;-74
2022/04/10 07:13:17;;;;;;;2.00;0.98;;;18.60;47.50;;;;;;5139064;27;20199;-73
2022/04/10 07:15:52;;;;;;;1.55;1.00;;;18.70;47.60;;;;;;5139156;27;20209;-74
2022/04/10 07:18:18;;;;;;;1.70;1.10;;;18.70;47.60;;;;;;5136442;27;20175;-69
2022/04/10 07:20:44;;;;;;;2.33;1.10;;;18.60;47.70;;;;;;5139623;27;20187;-67
2022/04/10 07:25:54;;;;;;;2.97;1.10;;;18.30;48.10;;;;;;5136542;27;20542;-72
2022/04/10 07:28:20;;;;;;;3.72;1.00;;;18.20;48.60;;;;;;5136418;27;20204;-72
2022/04/10 07:30:45;;;;;;;2.33;0.90;;;18.10;48.70;;;;;;5135909;27;20164;-72
2022/04/10 07:33:11;;;;;;;2.60;1.02;;;18.10;48.80;;;;;;5136146;27;20656;-70
2022/04/10 07:35:40;;;;;;;2.42;1.13;;;18.10;48.90;;;;;;5135954;27;20179;-71
2022/04/10 07:38:06;;;;;;;1.98;1.05;;;18.10;49.10;;;;;;5136139;27;20188;-69
2022/04/10 07:40:31;;;;;;;1.25;0.93;;;18.10;49.00;;;;;;5136223;27;20572;-71
2022/04/10 07:42:58;;;;;;;2.35;1.00;;;18.20;48.90;;;;;;5135283;27;20209;-71
2022/04/10 07:48:08;;;;;;;2.35;1.30;;;18.10;49.10;;;;;;5135782;27;20206;-70
2022/04/10 07:50:34;;;;;;;1.67;1.27;;;18.00;49.30;;;;;;5135287;27;20177;-71
2022/04/10 07:52:59;;;;;;;1.48;1.08;;;18.00;49.50;;;;;;5136039;27;20213;-70
2022/04/10 07:55:27;;;;;;;3.80;1.10;;;18.00;49.60;;;;;;5135759;27;20189;-70
2022/04/10 07:57:53;;;;;;;1.52;0.95;;;18.10;49.60;;;;;;5135459;27;20172;-70
2022/04/10 08:00:18;;;;;;;1.50;1.08;;;18.20;49.50;;;;;;5135263;27;20212;-70
2022/04/10 08:02:52;;;;;;;3.10;1.30;;;18.20;50.20;;;;;;5136135;27;20619;-70
2022/04/10 08:05:18;;;;;;;1.30;0.95;;;18.20;49.50;;;;;;5134650;27;20700;-69
2022/04/10 08:07:44;;;;;;;2.92;1.33;;;18.20;49.50;;;;;;5135667;27;20208;-69
2022/04/10 08:10:10;;;;;;;1.33;0.95;;;18.20;49.50;;;;;;5135468;27;20251;-69
2022/04/10 08:12:36;;;;;;;2.60;1.00;;;18.20;49.60;;;;;;5135050;27;20267;-72
2022/04/10 08:15:01;;;;;;;2.67;0.70;;;18.20;49.60;;;;;;5135677;27;20718;-72
2022/04/10 08:17:27;;;;;;;2.53;1.13;;;18.10;49.80;;;;;;5134891;27;20187;-72
2022/04/10 08:19:52;;;;;;;3.30;0.90;;;18.20;49.90;;;;;;5134617;27;20503;-71
2022/04/10 08:22:25;;;;;;;1.75;1.08;;;18.30;49.90;;;;;;5135067;27;20172;-73
2022/04/10 08:24:50;;;;;;;1.25;0.90;;;18.30;49.80;;;;;;5134635;27;20237;-73
2022/04/10 08:27:16;;;;;;;1.77;0.88;;;18.30;49.80;;;;;;5134917;27;20222;-72
2022/04/10 08:29:41;;;;;;;1.42;0.93;;;18.30;49.80;;;;;;5135385;27;20168;-71
2022/04/10 08:32:07;;;;;;;1.45;0.90;;;18.30;49.80;;;;;;5134219;27;20261;-70
2022/04/10 08:34:32;;;;;;;1.60;0.90;;;18.30;49.90;;;;;;5135133;27;20179;-69
2022/04/10 08:37:04;;;;;;;1.65;0.85;;;18.20;50.50;;;;;;5135066;27;20176;-70
2022/04/10 08:39:31;;;;;;;2.25;0.63;;;18.30;50.00;;;;;;5134300;27;20172;-70
2022/04/10 08:41:57;;;;;;;1.67;0.88;;;18.30;50.00;;;;;;5135205;27;20229;-71
2022/04/10 08:44:22;;;;;;;1.27;0.80;;;18.30;49.90;;;;;;5116391;27;20169;-68
2022/04/10 08:46:48;;;;;;;2.03;1.08;;;18.20;49.90;;;;;;5116047;27;20177;-69
2022/04/10 08:49:14;;;;;;;1.30;0.63;;;18.20;49.90;;;;;;5099289;27;20231;-71
2022/04/10 08:51:39;;;;;;;2.78;0.90;;;18.20;49.90;;;;;;5099741;27;20200;-72
2022/04/10 08:54:06;;;;;;;1.77;0.80;;;18.20;50.00;;;;;;5134214;27;20171;-70
2022/04/10 08:56:31;;;;;;;1.00;0.70;;;18.20;50.00;;;;;;5116631;27;20229;-68
2022/04/10 08:58:57;;;;;;;1.65;0.80;;;18.20;50.10;;;;;;5134782;27;20176;-68
2022/04/10 09:01:22;;;;;;;1.30;0.90;;;18.20;50.10;;;;;;5133452;27;20212;-70
2022/04/10 09:03:48;;;;;;;0.95;0.60;;;18.30;50.10;;;;;;5134433;27;20566;-68
2022/04/10 09:06:13;;;;;;;1.42;0.75;;;18.30;50.00;;;;;;5134397;27;20172;-66
2022/04/10 09:08:39;;;;;;;1.27;0.93;;;18.30;50.10;;;;;;5133685;27;20289;-73
2022/04/10 09:11:08;;;;;;;2.00;0.90;;;18.30;50.00;;;;;;5134497;27;20176;-76
2022/04/10 09:13:47;;;;;;;3.03;1.35;;;18.30;50.00;;;;;;5134587;27;20192;-74
2022/04/10 09:16:14;;;;;;;3.08;0.90;;;18.20;49.90;;;;;;5133503;27;20619;-73
2022/04/10 09:18:56;;;;;;;1.48;0.70;;;18.10;50.00;;;;;;5134508;27;20184;-75
2022/04/10 09:21:25;;;;;;;1.33;0.70;;;18.10;50.10;;;;;;5133449;27;20192;-66
2022/04/10 09:24:04;;;;;;;3.92;0.93;;;18.00;50.10;;;;;;5134361;27;20208;-70
2022/04/10 09:26:50;;;;;;;3.03;0.75;;;18.10;50.00;;;;;;5134042;27;20191;-72
2022/04/10 09:29:16;;;;;;;3.30;0.73;;;18.20;50.00;;;;;;5133158;27;20682;-71
2022/04/10 09:31:42;;;;;;;1.70;0.82;;;18.20;50.00;;;;;;5134280;27;20177;-72
2022/04/10 09:34:09;;;;;;;2.60;1.23;;;18.20;50.00;;;;;;5133831;27;20534;-71
2022/04/10 09:36:44;;;;;;;1.80;0.82;;;18.20;50.10;;;;;;5133361;27;20168;-72
2022/04/10 09:39:10;;;;;;;1.35;1.00;;;18.20;50.80;;;;;;5133559;27;20175;-71
2022/04/10 09:41:36;;;;;;;0.95;0.63;;;18.30;50.30;;;;;;5133838;27;20172;-73
2022/04/10 09:44:17;;;;;;;1.58;0.85;;;18.30;50.20;;;;;;5133421;27;20187;-70
2022/04/10 09:46:42;;;;;;;0.85;0.77;;;18.30;50.20;;;;;;5133471;27;20258;-73
2022/04/10 09:49:11;;;;;;;1.63;0.70;;;18.30;50.20;;;;;;5133503;27;20291;-72
2022/04/10 09:51:37;;;;;;;3.00;0.70;;;18.30;50.30;;;;;;5133638;27;20176;-72
2022/04/10 09:54:04;;;;;;;0.93;0.73;;;18.30;50.10;;;;;;5115985;27;20240;-73
2022/04/10 09:56:29;;;;;;;1.48;0.95;;;18.20;50.00;;;;;;5133167;27;20172;-71
2022/04/10 09:58:59;;;;;;;3.15;0.60;;;18.20;50.00;;;;;;5133444;27;20195;-72
2022/04/10 10:01:28;;;;;;;0.63;0.60;;;18.20;50.00;;;;;;5133195;27;20281;-73
2022/04/10 10:03:57;;;;;;;2.83;0.90;;;18.20;50.20;;;;;;5133013;27;20172;-70
2022/04/10 10:06:23;;;;;;;0.88;0.77;;;18.30;50.20;;;;;;5133324;27;20167;-72
2022/04/10 10:08:50;;;;;;;3.40;0.90;;;18.30;50.10;;;;;;5133662;27;20302;-69
2022/04/10 10:11:16;;;;;;;2.13;1.00;;;18.40;50.00;;;;;;5132692;28;20213;-72
2022/04/10 10:13:41;;;;;;;1.50;0.95;;;18.40;49.90;;;;;;5115463;28;20176;-74
2022/04/10 10:16:07;;;;;;;0.68;0.50;;;18.40;49.90;;;;;;5114913;28;20173;-73
2022/04/10 10:18:33;;;;;;;1.58;0.75;;;18.40;49.80;;;;;;5132673;28;20583;-71
2022/04/10 10:20:58;;;;;;;2.10;0.80;;;18.40;49.90;;;;;;5133428;28;20192;-72
2022/04/10 10:23:25;;;;;;;0.70;0.63;;;18.40;50.00;;;;;;5133370;28;20195;-72
2022/04/10 10:26:26;;;;;;;2.03;0.90;;;18.40;50.10;;;;;;5132886;28;20176;-71
2022/04/10 10:28:57;;;;;;;1.48;0.60;;;18.30;50.10;;;;;;5118402;28;20212;-73
2022/04/10 10:31:38;;;;;;;2.92;0.70;;;18.30;50.20;;;;;;5132743;28;20164;-71
2022/04/10 10:34:07;;;;;;;0.85;0.85;;;18.30;50.20;;;;;;5099490;28;20218;-71
2022/04/10 10:36:33;;;;;;;1.15;0.70;;;18.20;50.30;;;;;;5133404;28;20184;-70
2022/04/10 10:38:58;;;;;;;1.10;0.57;;;18.10;50.40;;;;;;5114317;28;20168;-72
2022/04/10 10:41:24;;;;;;;0.73;0.60;;;18.10;50.50;;;;;;5132896;28;20646;-73
2022/04/10 10:43:50;;;;;;;1.52;0.80;;;18.00;50.60;;;;;;5133224;28;20164;-71
2022/04/10 10:46:32;;;;;;;1.85;0.77;;;17.90;50.60;;;;;;5113995;28;20698;-70
2022/04/10 10:49:17;;;;;;;1.83;0.70;;;18.00;50.60;;;;;;5133471;28;20204;-71
2022/04/10 10:51:43;;;;;;;2.85;0.80;;;18.00;50.60;;;;;;5133369;28;20188;-75
2022/04/10 10:54:12;;;;;;;1.80;0.80;;;18.00;50.50;;;;;;5132322;28;20211;-75
2022/04/10 10:56:41;;;;;;;1.25;0.60;;;18.00;50.50;;;;;;5133295;28;20192;-75
2022/04/10 10:59:22;;;;;;;2.15;0.80;;;17.90;50.60;;;;;;5134734;27;20173;-74
2022/04/10 11:02:00;;;;;;;3.80;1.08;;;18.00;50.50;;;;;;5136180;27;20231;-69
2022/04/10 11:04:28;;;;;;;2.83;0.80;;;18.00;50.30;;;;;;5136598;27;20604;-69
2022/04/10 11:06:53;;;;;;;3.88;1.10;;;18.00;50.40;;;;;;5136175;27;20248;-68
2022/04/10 11:09:20;;;;;;;3.15;0.68;;;17.90;50.40;;;;;;5136560;27;20215;-68
2022/04/10 11:11:47;;;;;;;3.92;1.10;;;18.00;50.60;;;;;;5137008;27;20210;-71
2022/04/10 11:14:34;;;;;;;4.10;0.90;;;18.00;50.40;;;;;;5117558;27;20180;-69
2022/04/10 11:17:21;;;;;;;2.53;1.00;;;17.90;50.50;;;;;;5136764;27;20180;-71
2022/04/10 11:20:11;;;;;;;3.58;1.10;;;17.90;50.50;;;;;;5118353;27;20635;-71
2022/04/10 11:22:47;;;;;;;3.03;1.08;;;17.90;50.60;;;;;;5136006;27;20188;-70
2022/04/10 11:25:13;;;;;;;1.92;0.70;;;17.90;50.60;;;;;;5136216;27;20575;-75
2022/04/10 11:27:42;;;;;;;5.53;1.67;;;18.00;50.60;;;;;;5136286;27;20695;-73
2022/04/10 11:30:08;;;;;;;5.50;1.80;;;18.00;50.40;;;;;;5136144;27;20581;-75
2022/04/10 11:32:41;;;;;;;6.25;2.25;;;18.00;50.20;;;;;;5136734;27;20173;-74
2022/04/10 11:35:13;;;;;;;5.35;1.70;;;18.00;50.20;;;;;;5135625;27;20180;-68
2022/04/10 11:37:38;;;;;;;10.93;2.47;;;17.90;50.20;;;;;;5136532;27;20180;-70
2022/04/10 11:40:05;;;;;;;5.78;1.52;;;17.90;50.20;;;;;;5118011;27;20172;-69
2022/04/10 11:42:31;;;;;;;4.82;1.75;;;18.00;50.20;;;;;;5117522;27;20204;-70
2022/04/10 11:44:56;;;;;;;3.92;1.90;;;18.00;50.10;;;;;;5136578;27;20273;-71
2022/04/10 11:47:22;;;;;;;5.45;1.65;;;18.10;50.10;;;;;;5135891;27;20168;-70
2022/04/10 11:49:49;;;;;;;3.58;1.70;;;18.10;50.00;;;;;;5117227;27;20706;-70
2022/04/10 11:52:19;;;;;;;5.68;1.65;;;18.20;50.00;;;;;;5135994;27;20208;-70
2022/04/10 11:54:45;;;;;;;4.85;1.88;;;18.10;50.00;;;;;;5136160;27;20260;-71
2022/04/10 11:57:10;;;;;;;4.60;1.73;;;18.00;50.00;;;;;;5135266;27;20263;-69
2022/04/10 11:59:37;;;;;;;3.55;1.90;;;18.00;50.10;;;;;;5135771;27;20631;-68
2022/04/10 12:02:04;;;;;;;3.08;1.70;;;18.00;50.00;;;;;;5135598;27;20698;-67
2022/04/10 12:04:29;;;;;;;5.88;1.30;;;18.10;49.90;;;;;;5134838;27;20179;-67
2022/04/10 12:07:14;;;;;;;3.90;1.60;;;18.10;49.70;;;;;;5135798;27;20184;-67
2022/04/10 12:09:40;;;;;;;3.97;1.52;;;18.20;49.70;;;;;;5135166;27;20211;-68
2022/04/10 12:12:06;;;;;;;4.20;1.70;;;18.20;49.70;;;;;;5134314;27;20187;-68
2022/04/10 12:14:31;;;;;;;4.82;1.67;;;18.20;49.60;;;;;;5135905;27;20176;-68
2022/04/10 12:16:57;;;;;;;2.33;1.23;;;18.20;49.70;;;;;;5134867;27;20172;-68
2022/04/10 12:19:34;;;;;;;4.75;1.40;;;18.20;49.60;;;;;;5135195;27;20169;-68
2022/04/10 12:22:01;;;;;;;2.83;1.67;;;18.20;49.60;;;;;;5135674;27;20200;-69
2022/04/10 12:24:26;;;;;;;2.55;1.30;;;18.30;49.60;;;;;;5134528;27;20176;-68
2022/04/10 12:26:52;;;;;;;4.72;1.55;;;18.30;50.10;;;;;;5117124;27;20168;-71
2022/04/10 12:29:17;;;;;;;5.97;1.70;;;18.30;49.40;;;;;;5099618;27;20265;-69
2022/04/10 12:31:48;;;;;;;3.00;1.27;;;18.30;49.50;;;;;;5116089;27;20176;-69
2022/04/10 12:34:13;;;;;;;2.92;1.45;;;18.20;49.60;;;;;;5116535;27;20177;-68
2022/04/10 12:36:46;;;;;;;2.10;1.30;;;18.30;49.60;;;;;;5135049;27;20181;-69
2022/04/10 12:39:30;;;;;;;3.05;1.02;;;18.30;49.60;;;;;;5134060;27;20678;-70
2022/04/10 12:42:07;;;;;;;5.32;1.63;;;18.30;49.60;;;;;;5134886;27;20519;-69
2022/04/10 12:44:37;;;;;;;1.73;1.10;;;18.30;49.60;;;;;;5134879;27;20542;-70
2022/04/10 12:47:07;;;;;;;3.25;1.30;;;18.20;49.70;;;;;;5134335;27;20172;-69
2022/04/10 12:49:32;;;;;;;4.75;1.17;;;18.10;49.90;;;;;;5135005;27;20212;-70
2022/04/10 12:52:03;;;;;;;3.55;1.30;;;18.00;50.10;;;;;;5134990;27;20184;-68